sensor_id;sensor_type;location;lat;lon;timestamp;P1;durP1;ratioP1;P2;durP2;ratioP2
29940;SDS011;16801;53.562;10.038;2022-07-11T00:02:20;2.87;;;1.50;;
29940;SDS011;16801;53.562;10.038;2022-07-11T00:05:41;7.03;;;2.60;;
29940;SDS011;16801;53.562;10.038;2022-07-11T00:09:02;5.93;;;1.67;;
29940;SDS011;16801;53.562;10.038;2022-07-11T00:12:23;5.83;;;3.20;;
29940;SDS011;16801;53.562;10.038;2022-07-11T00:15:45;5.60;;;2.43;;
29940;SDS011;16801;53.562;10.038;2022-07-11T00:19:06;4.43;;;2.10;;
29940;SDS011;16801;53.562;10.038;2022-07-11T00:22:26;6.83;;;2.07;;
29940;SDS011;16801;53.562;10.038;2022-07-11T00:25:48;3.93;;;2.07;;
29940;SDS011;16801;53.562;10.038;2022-07-11T00:29:09;4.23;;;1.87;;
29940;SDS011;16801;53.562;10.038;2022-07-11T00:32:30;3.17;;;1.73;;
29940;SDS011;16801;53.562;10.038;2022-07-11T00:35:50;5.37;;;2.00;;
29940;SDS011;16801;53.562;10.038;2022-07-11T00:39:11;2.87;;;1.53;;
29940;SDS011;16801;53.562;10.038;2022-07-11T00:42:33;3.10;;;1.43;;
29940;SDS011;16801;53.562;10.038;2022-07-11T00:45:53;4.57;;;1.60;;
29940;SDS011;16801;53.562;10.038;2022-07-11T00:49:14;4.53;;;1.80;;
29940;SDS011;16801;53.562;10.038;2022-07-11T00:52:34;3.63;;;1.50;;
29940;SDS011;16801;53.562;10.038;2022-07-11T00:55:55;3.00;;;1.30;;
29940;SDS011;16801;53.562;10.038;2022-07-11T00:59:17;1.27;;;0.93;;
29940;SDS011;16801;53.562;10.038;2022-07-11T01:02:38;3.30;;;1.30;;
29940;SDS011;16801;53.562;10.038;2022-07-11T01:05:59;4.20;;;1.60;;
29940;SDS011;16801;53.562;10.038;2022-07-11T01:09:19;3.43;;;1.40;;
29940;SDS011;16801;53.562;10.038;2022-07-11T01:12:40;2.73;;;1.53;;
29940;SDS011;16801;53.562;10.038;2022-07-11T01:16:12;3.77;;;1.57;;
29940;SDS011;16801;53.562;10.038;2022-07-11T01:19:33;4.10;;;1.37;;
29940;SDS011;16801;53.562;10.038;2022-07-11T01:22:54;4.50;;;1.83;;
29940;SDS011;16801;53.562;10.038;2022-07-11T01:26:16;6.47;;;1.93;;
29940;SDS011;16801;53.562;10.038;2022-07-11T01:29:38;5.20;;;1.60;;
29940;SDS011;16801;53.562;10.038;2022-07-11T01:32:59;4.83;;;2.20;;
29940;SDS011;16801;53.562;10.038;2022-07-11T01:36:19;9.20;;;2.90;;
29940;SDS011;16801;53.562;10.038;2022-07-11T01:39:39;9.80;;;1.60;;
29940;SDS011;16801;53.562;10.038;2022-07-11T01:43:01;5.53;;;1.23;;
29940;SDS011;16801;53.562;10.038;2022-07-11T01:46:22;2.23;;;1.30;;
29940;SDS011;16801;53.562;10.038;2022-07-11T01:49:42;3.43;;;1.53;;
29940;SDS011;16801;53.562;10.038;2022-07-11T01:53:03;4.17;;;1.77;;
29940;SDS011;16801;53.562;10.038;2022-07-11T01:56:24;4.73;;;1.67;;
29940;SDS011;16801;53.562;10.038;2022-07-11T01:59:47;4.00;;;1.63;;
29940;SDS011;16801;53.562;10.038;2022-07-11T02:03:08;5.40;;;2.13;;
29940;SDS011;16801;53.562;10.038;2022-07-11T02:06:29;3.73;;;1.47;;
29940;SDS011;16801;53.562;10.038;2022-07-11T02:09:49;5.70;;;2.13;;
29940;SDS011;16801;53.562;10.038;2022-07-11T02:13:11;3.13;;;1.67;;
29940;SDS011;16801;53.562;10.038;2022-07-11T02:16:33;2.93;;;1.57;;
29940;SDS011;16801;53.562;10.038;2022-07-11T02:19:53;2.53;;;1.20;;
29940;SDS011;16801;53.562;10.038;2022-07-11T02:23:14;5.37;;;1.60;;
29940;SDS011;16801;53.562;10.038;2022-07-11T02:26:35;2.90;;;1.50;;
29940;SDS011;16801;53.562;10.038;2022-07-11T02:29:55;2.07;;;1.83;;
29940;SDS011;16801;53.562;10.038;2022-07-11T02:33:18;5.80;;;1.60;;
29940;SDS011;16801;53.562;10.038;2022-07-11T02:36:38;3.77;;;1.97;;
29940;SDS011;16801;53.562;10.038;2022-07-11T02:39:58;3.90;;;2.20;;
29940;SDS011;16801;53.562;10.038;2022-07-11T02:43:19;2.37;;;1.70;;
29940;SDS011;16801;53.562;10.038;2022-07-11T02:46:39;3.30;;;1.87;;
29940;SDS011;16801;53.562;10.038;2022-07-11T02:50:01;4.13;;;1.43;;
29940;SDS011;16801;53.562;10.038;2022-07-11T02:53:21;3.00;;;2.00;;
29940;SDS011;16801;53.562;10.038;2022-07-11T02:56:43;3.20;;;2.17;;
29940;SDS011;16801;53.562;10.038;2022-07-11T03:00:03;8.13;;;1.97;;
29940;SDS011;16801;53.562;10.038;2022-07-11T03:03:25;4.13;;;1.30;;
29940;SDS011;16801;53.562;10.038;2022-07-11T03:06:47;2.23;;;1.40;;
29940;SDS011;16801;53.562;10.038;2022-07-11T03:10:08;5.27;;;3.00;;
29940;SDS011;16801;53.562;10.038;2022-07-11T03:13:28;5.43;;;1.97;;
29940;SDS011;16801;53.562;10.038;2022-07-11T03:16:49;3.97;;;1.50;;
29940;SDS011;16801;53.562;10.038;2022-07-11T03:20:10;2.77;;;1.43;;
29940;SDS011;16801;53.562;10.038;2022-07-11T03:23:32;3.60;;;1.40;;
29940;SDS011;16801;53.562;10.038;2022-07-11T03:26:52;3.17;;;1.50;;
29940;SDS011;16801;53.562;10.038;2022-07-11T03:30:13;3.83;;;1.47;;
29940;SDS011;16801;53.562;10.038;2022-07-11T03:33:34;2.93;;;1.43;;
29940;SDS011;16801;53.562;10.038;2022-07-11T03:36:54;3.97;;;3.07;;
29940;SDS011;16801;53.562;10.038;2022-07-11T03:40:17;6.60;;;2.07;;
29940;SDS011;16801;53.562;10.038;2022-07-11T03:43:37;5.23;;;2.50;;
29940;SDS011;16801;53.562;10.038;2022-07-11T03:46:58;3.70;;;2.10;;
29940;SDS011;16801;53.562;10.038;2022-07-11T03:50:18;4.80;;;2.67;;
29940;SDS011;16801;53.562;10.038;2022-07-11T03:53:39;2.77;;;1.83;;
29940;SDS011;16801;53.562;10.038;2022-07-11T03:57:01;2.90;;;1.87;;
29940;SDS011;16801;53.562;10.038;2022-07-11T04:00:22;4.43;;;2.37;;
29940;SDS011;16801;53.562;10.038;2022-07-11T04:03:43;4.17;;;2.30;;
29940;SDS011;16801;53.562;10.038;2022-07-11T04:07:04;4.03;;;1.40;;
29940;SDS011;16801;53.562;10.038;2022-07-11T04:10:25;5.63;;;1.60;;
29940;SDS011;16801;53.562;10.038;2022-07-11T04:13:47;4.43;;;1.43;;
29940;SDS011;16801;53.562;10.038;2022-07-11T04:17:08;4.47;;;1.83;;
29940;SDS011;16801;53.562;10.038;2022-07-11T04:20:28;5.17;;;1.40;;
29940;SDS011;16801;53.562;10.038;2022-07-11T04:23:49;3.37;;;1.50;;
29940;SDS011;16801;53.562;10.038;2022-07-11T04:27:10;10.43;;;2.80;;
29940;SDS011;16801;53.562;10.038;2022-07-11T04:30:31;3.10;;;2.53;;
29940;SDS011;16801;53.562;10.038;2022-07-11T04:33:52;9.77;;;4.63;;
29940;SDS011;16801;53.562;10.038;2022-07-11T04:37:13;6.10;;;2.47;;
29940;SDS011;16801;53.562;10.038;2022-07-11T04:40:33;4.70;;;2.33;;
29940;SDS011;16801;53.562;10.038;2022-07-11T04:43:54;6.63;;;2.43;;
29940;SDS011;16801;53.562;10.038;2022-07-11T04:47:16;4.07;;;2.07;;
29940;SDS011;16801;53.562;10.038;2022-07-11T04:50:36;3.37;;;1.73;;
29940;SDS011;16801;53.562;10.038;2022-07-11T04:53:57;5.33;;;1.90;;
29940;SDS011;16801;53.562;10.038;2022-07-11T04:57:17;5.00;;;2.03;;
29940;SDS011;16801;53.562;10.038;2022-07-11T05:00:38;5.03;;;2.00;;
29940;SDS011;16801;53.562;10.038;2022-07-11T05:04:00;5.13;;;1.50;;
29940;SDS011;16801;53.562;10.038;2022-07-11T05:07:20;3.00;;;1.67;;
29940;SDS011;16801;53.562;10.038;2022-07-11T05:10:41;6.53;;;3.20;;
29940;SDS011;16801;53.562;10.038;2022-07-11T05:14:01;6.20;;;2.30;;
29940;SDS011;16801;53.562;10.038;2022-07-11T05:17:22;8.37;;;1.67;;
29940;SDS011;16801;53.562;10.038;2022-07-11T05:20:44;6.30;;;3.20;;
29940;SDS011;16801;53.562;10.038;2022-07-11T05:24:05;6.80;;;3.43;;
29940;SDS011;16801;53.562;10.038;2022-07-11T05:27:26;5.47;;;2.53;;
29940;SDS011;16801;53.562;10.038;2022-07-11T05:30:46;4.73;;;1.83;;
29940;SDS011;16801;53.562;10.038;2022-07-11T05:34:07;4.93;;;2.33;;
29940;SDS011;16801;53.562;10.038;2022-07-11T05:37:29;3.90;;;2.20;;
29940;SDS011;16801;53.562;10.038;2022-07-11T05:40:49;4.43;;;2.10;;
29940;SDS011;16801;53.562;10.038;2022-07-11T05:44:10;6.80;;;2.07;;
29940;SDS011;16801;53.562;10.038;2022-07-11T05:47:30;7.13;;;2.13;;
29940;SDS011;16801;53.562;10.038;2022-07-11T05:50:51;3.47;;;1.77;;
29940;SDS011;16801;53.562;10.038;2022-07-11T05:54:13;4.93;;;2.43;;
29940;SDS011;16801;53.562;10.038;2022-07-11T05:57:34;5.63;;;2.57;;
29940;SDS011;16801;53.562;10.038;2022-07-11T06:00:57;2.13;;;1.70;;
29940;SDS011;16801;53.562;10.038;2022-07-11T06:04:18;7.77;;;2.63;;
29940;SDS011;16801;53.562;10.038;2022-07-11T06:07:38;4.63;;;1.60;;
29940;SDS011;16801;53.562;10.038;2022-07-11T06:11:33;2.67;;;1.43;;
29940;SDS011;16801;53.562;10.038;2022-07-11T06:14:53;5.67;;;1.73;;
29940;SDS011;16801;53.562;10.038;2022-07-11T06:18:14;5.93;;;1.70;;
29940;SDS011;16801;53.562;10.038;2022-07-11T06:21:34;3.43;;;1.60;;
29940;SDS011;16801;53.562;10.038;2022-07-11T06:24:55;3.83;;;1.40;;
29940;SDS011;16801;53.562;10.038;2022-07-11T06:28:17;4.27;;;1.77;;
29940;SDS011;16801;53.562;10.038;2022-07-11T06:31:38;2.67;;;1.00;;
29940;SDS011;16801;53.562;10.038;2022-07-11T06:34:59;5.07;;;1.40;;
29940;SDS011;16801;53.562;10.038;2022-07-11T06:38:19;4.82;;;1.23;;
29940;SDS011;16801;53.562;10.038;2022-07-11T06:41:40;1.55;;;1.13;;
29940;SDS011;16801;53.562;10.038;2022-07-11T06:45:03;4.40;;;1.75;;
29940;SDS011;16801;53.562;10.038;2022-07-11T06:48:24;4.97;;;1.60;;
29940;SDS011;16801;53.562;10.038;2022-07-11T06:51:45;4.00;;;1.43;;
29940;SDS011;16801;53.562;10.038;2022-07-11T06:55:06;4.30;;;1.47;;
29940;SDS011;16801;53.562;10.038;2022-07-11T06:58:26;9.55;;;2.13;;
29940;SDS011;16801;53.562;10.038;2022-07-11T07:01:54;4.37;;;1.70;;
29940;SDS011;16801;53.562;10.038;2022-07-11T07:05:16;2.87;;;1.40;;
29940;SDS011;16801;53.562;10.038;2022-07-11T07:08:38;6.22;;;1.60;;
29940;SDS011;16801;53.562;10.038;2022-07-11T07:11:58;2.72;;;1.92;;
29940;SDS011;16801;53.562;10.038;2022-07-11T07:15:19;2.63;;;1.50;;
29940;SDS011;16801;53.562;10.038;2022-07-11T07:18:42;3.17;;;1.58;;
29940;SDS011;16801;53.562;10.038;2022-07-11T07:22:05;2.17;;;1.27;;
29940;SDS011;16801;53.562;10.038;2022-07-11T07:25:27;3.40;;;1.65;;
29940;SDS011;16801;53.562;10.038;2022-07-11T07:28:47;4.60;;;1.77;;
29940;SDS011;16801;53.562;10.038;2022-07-11T07:32:08;2.30;;;1.42;;
29940;SDS011;16801;53.562;10.038;2022-07-11T07:35:30;3.05;;;1.77;;
29940;SDS011;16801;53.562;10.038;2022-07-11T07:38:51;2.38;;;1.05;;
29940;SDS011;16801;53.562;10.038;2022-07-11T07:42:12;3.22;;;1.52;;
29940;SDS011;16801;53.562;10.038;2022-07-11T07:45:32;4.68;;;1.85;;
29940;SDS011;16801;53.562;10.038;2022-07-11T07:48:53;6.72;;;1.70;;
29940;SDS011;16801;53.562;10.038;2022-07-11T07:52:15;2.70;;;1.30;;
29940;SDS011;16801;53.562;10.038;2022-07-11T07:55:36;3.40;;;1.13;;
29940;SDS011;16801;53.562;10.038;2022-07-11T07:58:56;2.25;;;1.20;;
29940;SDS011;16801;53.562;10.038;2022-07-11T08:02:17;2.38;;;1.48;;
29940;SDS011;16801;53.562;10.038;2022-07-11T08:05:37;2.17;;;1.00;;
29940;SDS011;16801;53.562;10.038;2022-07-11T08:08:59;1.77;;;1.33;;
29940;SDS011;16801;53.562;10.038;2022-07-11T08:12:19;2.40;;;1.02;;
29940;SDS011;16801;53.562;10.038;2022-07-11T08:15:40;1.33;;;1.00;;
29940;SDS011;16801;53.562;10.038;2022-07-11T08:19:01;1.65;;;1.30;;
29940;SDS011;16801;53.562;10.038;2022-07-11T08:22:22;3.58;;;1.95;;
29940;SDS011;16801;53.562;10.038;2022-07-11T08:25:45;1.77;;;1.65;;
29940;SDS011;16801;53.562;10.038;2022-07-11T08:29:06;3.00;;;1.40;;
29940;SDS011;16801;53.562;10.038;2022-07-11T08:32:27;4.05;;;1.55;;
29940;SDS011;16801;53.562;10.038;2022-07-11T08:35:47;4.93;;;1.83;;
29940;SDS011;16801;53.562;10.038;2022-07-11T08:39:07;1.60;;;1.23;;
29940;SDS011;16801;53.562;10.038;2022-07-11T08:42:29;2.17;;;1.40;;
29940;SDS011;16801;53.562;10.038;2022-07-11T08:45:50;3.53;;;1.60;;
29940;SDS011;16801;53.562;10.038;2022-07-11T08:49:12;3.05;;;1.40;;
29940;SDS011;16801;53.562;10.038;2022-07-11T08:52:33;1.67;;;0.95;;
29940;SDS011;16801;53.562;10.038;2022-07-11T08:55:54;1.00;;;0.90;;
29940;SDS011;16801;53.562;10.038;2022-07-11T08:59:16;1.52;;;1.23;;
29940;SDS011;16801;53.562;10.038;2022-07-11T09:02:37;1.20;;;1.10;;
29940;SDS011;16801;53.562;10.038;2022-07-11T09:06:01;0.95;;;0.80;;
29940;SDS011;16801;53.562;10.038;2022-07-11T09:09:21;2.55;;;1.00;;
29940;SDS011;16801;53.562;10.038;2022-07-11T09:12:57;2.60;;;1.45;;
29940;SDS011;16801;53.562;10.038;2022-07-11T09:16:20;4.72;;;1.25;;
29940;SDS011;16801;53.562;10.038;2022-07-11T09:19:40;1.77;;;1.42;;
29940;SDS011;16801;53.562;10.038;2022-07-11T09:23:01;3.22;;;1.65;;
29940;SDS011;16801;53.562;10.038;2022-07-11T09:26:40;2.22;;;0.90;;
29940;SDS011;16801;53.562;10.038;2022-07-11T09:30:16;2.60;;;1.60;;
29940;SDS011;16801;53.562;10.038;2022-07-11T09:33:38;1.63;;;0.73;;
29940;SDS011;16801;53.562;10.038;2022-07-11T09:37:17;3.90;;;1.35;;
29940;SDS011;16801;53.562;10.038;2022-07-11T09:40:38;2.38;;;1.00;;
29940;SDS011;16801;53.562;10.038;2022-07-11T09:44:10;2.67;;;0.73;;
29940;SDS011;16801;53.562;10.038;2022-07-11T09:47:41;1.38;;;0.80;;
29940;SDS011;16801;53.562;10.038;2022-07-11T09:51:04;2.15;;;0.80;;
29940;SDS011;16801;53.562;10.038;2022-07-11T09:54:24;1.05;;;0.80;;
29940;SDS011;16801;53.562;10.038;2022-07-11T09:57:45;3.92;;;1.13;;
29940;SDS011;16801;53.562;10.038;2022-07-11T10:01:06;5.32;;;1.70;;
29940;SDS011;16801;53.562;10.038;2022-07-11T10:04:26;1.58;;;1.00;;
29940;SDS011;16801;53.562;10.038;2022-07-11T10:07:48;1.20;;;0.98;;
29940;SDS011;16801;53.562;10.038;2022-07-11T10:11:09;3.25;;;1.15;;
29940;SDS011;16801;53.562;10.038;2022-07-11T10:14:30;2.53;;;1.05;;
29940;SDS011;16801;53.562;10.038;2022-07-11T10:17:54;2.45;;;1.25;;
29940;SDS011;16801;53.562;10.038;2022-07-11T10:21:21;1.58;;;1.17;;
29940;SDS011;16801;53.562;10.038;2022-07-11T10:24:45;3.78;;;0.98;;
29940;SDS011;16801;53.562;10.038;2022-07-11T10:28:13;1.52;;;0.88;;
29940;SDS011;16801;53.562;10.038;2022-07-11T10:31:36;1.20;;;0.80;;
29940;SDS011;16801;53.562;10.038;2022-07-11T10:35:07;1.48;;;1.13;;
29940;SDS011;16801;53.562;10.038;2022-07-11T10:38:27;1.58;;;0.77;;
29940;SDS011;16801;53.562;10.038;2022-07-11T10:41:49;1.73;;;0.70;;
29940;SDS011;16801;53.562;10.038;2022-07-11T10:45:11;2.17;;;1.20;;
29940;SDS011;16801;53.562;10.038;2022-07-11T10:48:32;1.30;;;0.93;;
29940;SDS011;16801;53.562;10.038;2022-07-11T10:51:54;2.08;;;0.98;;
29940;SDS011;16801;53.562;10.038;2022-07-11T10:55:26;2.90;;;1.35;;
29940;SDS011;16801;53.562;10.038;2022-07-11T10:58:58;1.15;;;1.05;;
29940;SDS011;16801;53.562;10.038;2022-07-11T11:02:19;5.00;;;2.03;;
29940;SDS011;16801;53.562;10.038;2022-07-11T11:05:40;2.13;;;0.90;;
29940;SDS011;16801;53.562;10.038;2022-07-11T11:09:01;1.33;;;1.20;;
29940;SDS011;16801;53.562;10.038;2022-07-11T11:12:31;2.08;;;1.17;;
29940;SDS011;16801;53.562;10.038;2022-07-11T11:16:18;2.20;;;0.93;;
29940;SDS011;16801;53.562;10.038;2022-07-11T11:19:52;2.65;;;1.25;;
29940;SDS011;16801;53.562;10.038;2022-07-11T11:23:13;2.00;;;0.82;;
29940;SDS011;16801;53.562;10.038;2022-07-11T11:26:44;1.95;;;0.70;;
29940;SDS011;16801;53.562;10.038;2022-07-11T11:30:05;1.77;;;0.93;;
29940;SDS011;16801;53.562;10.038;2022-07-11T11:33:28;2.75;;;0.80;;
29940;SDS011;16801;53.562;10.038;2022-07-11T11:36:52;3.47;;;0.98;;
29940;SDS011;16801;53.562;10.038;2022-07-11T11:40:13;3.38;;;1.00;;
29940;SDS011;16801;53.562;10.038;2022-07-11T11:43:34;1.05;;;0.90;;
29940;SDS011;16801;53.562;10.038;2022-07-11T11:46:55;2.08;;;1.08;;
29940;SDS011;16801;53.562;10.038;2022-07-11T11:50:17;2.30;;;1.55;;
29940;SDS011;16801;53.562;10.038;2022-07-11T11:53:38;1.48;;;1.38;;
29940;SDS011;16801;53.562;10.038;2022-07-11T11:57:04;3.58;;;1.40;;
29940;SDS011;16801;53.562;10.038;2022-07-11T12:00:26;4.05;;;1.38;;
29940;SDS011;16801;53.562;10.038;2022-07-11T12:03:49;1.23;;;1.17;;
29940;SDS011;16801;53.562;10.038;2022-07-11T12:07:13;3.13;;;1.30;;
29940;SDS011;16801;53.562;10.038;2022-07-11T12:10:33;1.70;;;1.60;;
29940;SDS011;16801;53.562;10.038;2022-07-11T12:13:55;1.13;;;1.13;;
29940;SDS011;16801;53.562;10.038;2022-07-11T12:17:16;1.20;;;1.02;;
29940;SDS011;16801;53.562;10.038;2022-07-11T12:20:42;2.88;;;1.77;;
29940;SDS011;16801;53.562;10.038;2022-07-11T12:24:06;1.38;;;1.27;;
29940;SDS011;16801;53.562;10.038;2022-07-11T12:27:27;1.38;;;1.10;;
29940;SDS011;16801;53.562;10.038;2022-07-11T12:30:53;1.75;;;1.52;;
29940;SDS011;16801;53.562;10.038;2022-07-11T12:34:14;1.65;;;1.40;;
29940;SDS011;16801;53.562;10.038;2022-07-11T12:37:36;1.75;;;1.20;;
29940;SDS011;16801;53.562;10.038;2022-07-11T12:40:59;2.67;;;1.50;;
29940;SDS011;16801;53.562;10.038;2022-07-11T12:44:21;1.60;;;1.42;;
29940;SDS011;16801;53.562;10.038;2022-07-11T12:47:59;1.85;;;0.68;;
29940;SDS011;16801;53.562;10.038;2022-07-11T12:51:25;1.55;;;0.98;;
29940;SDS011;16801;53.562;10.038;2022-07-11T12:54:46;1.25;;;1.15;;
29940;SDS011;16801;53.562;10.038;2022-07-11T12:58:09;2.25;;;1.75;;
29940;SDS011;16801;53.562;10.038;2022-07-11T13:01:30;2.35;;;2.15;;
29940;SDS011;16801;53.562;10.038;2022-07-11T13:04:51;3.13;;;1.73;;
29940;SDS011;16801;53.562;10.038;2022-07-11T13:08:20;2.75;;;0.90;;
29940;SDS011;16801;53.562;10.038;2022-07-11T13:11:58;2.38;;;1.75;;
29940;SDS011;16801;53.562;10.038;2022-07-11T13:15:20;1.13;;;1.02;;
29940;SDS011;16801;53.562;10.038;2022-07-11T13:18:42;0.93;;;0.70;;
29940;SDS011;16801;53.562;10.038;2022-07-11T13:22:03;0.60;;;0.60;;
29940;SDS011;16801;53.562;10.038;2022-07-11T13:25:23;1.42;;;1.08;;
29940;SDS011;16801;53.562;10.038;2022-07-11T13:28:44;2.35;;;0.70;;
29940;SDS011;16801;53.562;10.038;2022-07-11T13:32:06;3.08;;;0.77;;
29940;SDS011;16801;53.562;10.038;2022-07-11T13:35:27;0.95;;;0.57;;
29940;SDS011;16801;53.562;10.038;2022-07-11T13:38:48;0.63;;;0.63;;
29940;SDS011;16801;53.562;10.038;2022-07-11T13:42:09;1.38;;;0.73;;
29940;SDS011;16801;53.562;10.038;2022-07-11T13:45:29;1.25;;;0.90;;
29940;SDS011;16801;53.562;10.038;2022-07-11T13:48:51;1.15;;;0.70;;
29940;SDS011;16801;53.562;10.038;2022-07-11T13:52:12;1.20;;;0.75;;
29940;SDS011;16801;53.562;10.038;2022-07-11T13:55:32;1.15;;;0.90;;
29940;SDS011;16801;53.562;10.038;2022-07-11T13:58:53;1.10;;;0.70;;
29940;SDS011;16801;53.562;10.038;2022-07-11T14:02:14;2.65;;;0.77;;
29940;SDS011;16801;53.562;10.038;2022-07-11T14:05:36;1.13;;;0.77;;
29940;SDS011;16801;53.562;10.038;2022-07-11T14:08:57;1.00;;;1.00;;
29940;SDS011;16801;53.562;10.038;2022-07-11T14:12:18;2.45;;;1.33;;
29940;SDS011;16801;53.562;10.038;2022-07-11T14:15:38;2.17;;;1.08;;
29940;SDS011;16801;53.562;10.038;2022-07-11T14:19:00;0.60;;;0.60;;
29940;SDS011;16801;53.562;10.038;2022-07-11T14:22:25;1.48;;;0.73;;
29940;SDS011;16801;53.562;10.038;2022-07-11T14:25:45;2.00;;;1.00;;
29940;SDS011;16801;53.562;10.038;2022-07-11T14:29:06;0.88;;;0.88;;
29940;SDS011;16801;53.562;10.038;2022-07-11T14:32:27;2.45;;;0.90;;
29940;SDS011;16801;53.562;10.038;2022-07-11T14:35:48;1.00;;;1.00;;
29940;SDS011;16801;53.562;10.038;2022-07-11T14:39:10;1.17;;;1.08;;
29940;SDS011;16801;53.562;10.038;2022-07-11T14:42:30;0.88;;;0.82;;
29940;SDS011;16801;53.562;10.038;2022-07-11T14:45:51;2.42;;;0.82;;
29940;SDS011;16801;53.562;10.038;2022-07-11T14:49:12;1.58;;;1.45;;
29940;SDS011;16801;53.562;10.038;2022-07-11T14:52:33;1.10;;;0.73;;
29940;SDS011;16801;53.562;10.038;2022-07-11T14:55:54;1.55;;;0.85;;
29940;SDS011;16801;53.562;10.038;2022-07-11T14:59:15;2.40;;;0.93;;
29940;SDS011;16801;53.562;10.038;2022-07-11T15:02:36;1.80;;;0.70;;
29940;SDS011;16801;53.562;10.038;2022-07-11T15:06:14;1.60;;;0.90;;
29940;SDS011;16801;53.562;10.038;2022-07-11T15:09:35;1.38;;;1.05;;
29940;SDS011;16801;53.562;10.038;2022-07-11T15:13:14;3.53;;;1.10;;
29940;SDS011;16801;53.562;10.038;2022-07-11T15:16:35;3.80;;;3.50;;
29940;SDS011;16801;53.562;10.038;2022-07-11T15:19:56;2.95;;;2.70;;
29940;SDS011;16801;53.562;10.038;2022-07-11T15:23:16;1.92;;;1.50;;
29940;SDS011;16801;53.562;10.038;2022-07-11T15:26:37;1.92;;;0.80;;
29940;SDS011;16801;53.562;10.038;2022-07-11T15:29:59;0.50;;;0.47;;
29940;SDS011;16801;53.562;10.038;2022-07-11T15:33:20;0.60;;;0.60;;
29940;SDS011;16801;53.562;10.038;2022-07-11T15:36:40;1.45;;;0.68;;
29940;SDS011;16801;53.562;10.038;2022-07-11T15:40:01;1.05;;;0.70;;
29940;SDS011;16801;53.562;10.038;2022-07-11T15:43:22;0.60;;;0.60;;
29940;SDS011;16801;53.562;10.038;2022-07-11T15:46:44;1.13;;;0.68;;
29940;SDS011;16801;53.562;10.038;2022-07-11T15:50:05;1.20;;;0.93;;
29940;SDS011;16801;53.562;10.038;2022-07-11T15:53:26;0.60;;;0.60;;
29940;SDS011;16801;53.562;10.038;2022-07-11T15:56:47;1.23;;;0.70;;
29940;SDS011;16801;53.562;10.038;2022-07-11T16:00:08;0.73;;;0.50;;
29940;SDS011;16801;53.562;10.038;2022-07-11T16:03:35;0.40;;;0.40;;
29940;SDS011;16801;53.562;10.038;2022-07-11T16:06:56;1.95;;;0.47;;
29940;SDS011;16801;53.562;10.038;2022-07-11T16:10:16;0.73;;;0.40;;
29940;SDS011;16801;53.562;10.038;2022-07-11T16:13:37;0.70;;;0.68;;
29940;SDS011;16801;53.562;10.038;2022-07-11T16:16:57;2.58;;;1.15;;
29940;SDS011;16801;53.562;10.038;2022-07-11T16:20:19;2.25;;;0.80;;
29940;SDS011;16801;53.562;10.038;2022-07-11T16:23:40;1.70;;;0.60;;
29940;SDS011;16801;53.562;10.038;2022-07-11T16:27:00;1.83;;;0.82;;
29940;SDS011;16801;53.562;10.038;2022-07-11T16:30:21;0.85;;;0.75;;
29940;SDS011;16801;53.562;10.038;2022-07-11T16:33:50;2.72;;;0.80;;
29940;SDS011;16801;53.562;10.038;2022-07-11T16:37:12;0.82;;;0.82;;
29940;SDS011;16801;53.562;10.038;2022-07-11T16:40:33;0.57;;;0.50;;
29940;SDS011;16801;53.562;10.038;2022-07-11T16:44:11;2.05;;;0.75;;
29940;SDS011;16801;53.562;10.038;2022-07-11T16:47:32;1.23;;;0.93;;
29940;SDS011;16801;53.562;10.038;2022-07-11T16:50:53;0.70;;;0.70;;
29940;SDS011;16801;53.562;10.038;2022-07-11T16:54:14;0.80;;;0.40;;
29940;SDS011;16801;53.562;10.038;2022-07-11T16:57:35;0.70;;;0.50;;
29940;SDS011;16801;53.562;10.038;2022-07-11T17:00:55;1.52;;;0.75;;
29940;SDS011;16801;53.562;10.038;2022-07-11T17:04:16;0.77;;;0.77;;
29940;SDS011;16801;53.562;10.038;2022-07-11T17:07:36;1.27;;;1.05;;
29940;SDS011;16801;53.562;10.038;2022-07-11T17:11:18;2.58;;;1.00;;
29940;SDS011;16801;53.562;10.038;2022-07-11T17:14:39;1.95;;;1.85;;
29940;SDS011;16801;53.562;10.038;2022-07-11T17:17:59;0.40;;;0.40;;
29940;SDS011;16801;53.562;10.038;2022-07-11T17:21:20;1.23;;;0.63;;
29940;SDS011;16801;53.562;10.038;2022-07-11T17:24:41;1.60;;;1.50;;
29940;SDS011;16801;53.562;10.038;2022-07-11T17:28:03;4.13;;;0.82;;
29940;SDS011;16801;53.562;10.038;2022-07-11T17:31:23;0.65;;;0.60;;
29940;SDS011;16801;53.562;10.038;2022-07-11T17:34:44;0.60;;;0.60;;
29940;SDS011;16801;53.562;10.038;2022-07-11T17:38:06;1.45;;;0.70;;
29940;SDS011;16801;53.562;10.038;2022-07-11T17:41:27;2.00;;;0.60;;
29940;SDS011;16801;53.562;10.038;2022-07-11T17:44:49;1.92;;;1.00;;
29940;SDS011;16801;53.562;10.038;2022-07-11T17:48:10;1.15;;;0.70;;
29940;SDS011;16801;53.562;10.038;2022-07-11T17:51:31;0.95;;;0.80;;
29940;SDS011;16801;53.562;10.038;2022-07-11T17:54:52;1.70;;;1.58;;
29940;SDS011;16801;53.562;10.038;2022-07-11T17:58:12;1.52;;;0.88;;
29940;SDS011;16801;53.562;10.038;2022-07-11T18:01:34;0.80;;;0.73;;
29940;SDS011;16801;53.562;10.038;2022-07-11T18:04:55;1.70;;;1.20;;
29940;SDS011;16801;53.562;10.038;2022-07-11T18:08:15;1.10;;;0.95;;
29940;SDS011;16801;53.562;10.038;2022-07-11T18:11:36;0.98;;;0.63;;
29940;SDS011;16801;53.562;10.038;2022-07-11T18:14:56;0.95;;;0.95;;
29940;SDS011;16801;53.562;10.038;2022-07-11T18:18:18;1.45;;;0.80;;
29940;SDS011;16801;53.562;10.038;2022-07-11T18:21:39;0.60;;;0.60;;
29940;SDS011;16801;53.562;10.038;2022-07-11T18:24:59;1.42;;;0.80;;
29940;SDS011;16801;53.562;10.038;2022-07-11T18:28:20;0.77;;;0.70;;
29940;SDS011;16801;53.562;10.038;2022-07-11T18:31:41;0.85;;;0.85;;
29940;SDS011;16801;53.562;10.038;2022-07-11T18:35:03;1.13;;;1.08;;
29940;SDS011;16801;53.562;10.038;2022-07-11T18:38:24;1.52;;;1.13;;
29940;SDS011;16801;53.562;10.038;2022-07-11T18:41:45;3.30;;;2.05;;
29940;SDS011;16801;53.562;10.038;2022-07-11T18:45:05;6.00;;;2.80;;
29940;SDS011;16801;53.562;10.038;2022-07-11T18:48:26;1.30;;;1.13;;
29940;SDS011;16801;53.562;10.038;2022-07-11T18:51:48;2.58;;;1.73;;
29940;SDS011;16801;53.562;10.038;2022-07-11T18:55:09;5.50;;;2.10;;
29940;SDS011;16801;53.562;10.038;2022-07-11T18:58:30;1.40;;;1.30;;
29940;SDS011;16801;53.562;10.038;2022-07-11T19:01:51;1.88;;;0.90;;
29940;SDS011;16801;53.562;10.038;2022-07-11T19:05:14;1.45;;;1.33;;
29940;SDS011;16801;53.562;10.038;2022-07-11T19:08:36;2.58;;;1.17;;
29940;SDS011;16801;53.562;10.038;2022-07-11T19:11:57;2.47;;;0.85;;
29940;SDS011;16801;53.562;10.038;2022-07-11T19:15:18;1.08;;;1.08;;
29940;SDS011;16801;53.562;10.038;2022-07-11T19:18:38;0.80;;;0.80;;
29940;SDS011;16801;53.562;10.038;2022-07-11T19:21:59;1.25;;;1.00;;
29940;SDS011;16801;53.562;10.038;2022-07-11T19:25:21;1.75;;;1.10;;
29940;SDS011;16801;53.562;10.038;2022-07-11T19:28:43;0.93;;;0.90;;
29940;SDS011;16801;53.562;10.038;2022-07-11T19:32:04;2.08;;;1.58;;
29940;SDS011;16801;53.562;10.038;2022-07-11T19:35:25;1.60;;;1.38;;
29940;SDS011;16801;53.562;10.038;2022-07-11T19:38:45;2.30;;;1.52;;
29940;SDS011;16801;53.562;10.038;2022-07-11T19:42:09;1.40;;;1.30;;
29940;SDS011;16801;53.562;10.038;2022-07-11T19:45:30;2.20;;;2.00;;
29940;SDS011;16801;53.562;10.038;2022-07-11T19:48:50;4.65;;;1.58;;
29940;SDS011;16801;53.562;10.038;2022-07-11T19:52:11;1.48;;;1.25;;
29940;SDS011;16801;53.562;10.038;2022-07-11T19:55:32;2.15;;;1.40;;
29940;SDS011;16801;53.562;10.038;2022-07-11T19:59:12;2.20;;;1.27;;